sensor_id;sensor_type;location;lat;lon;timestamp;P1;durP1;ratioP1;P2;durP2;ratioP2
9844;SDS011;4961;50.782;6.080;2022-11-12T00:01:33;5.03;;;3.70;;
9844;SDS011;4961;50.782;6.080;2022-11-12T00:04:01;4.23;;;3.70;;
9844;SDS011;4961;50.782;6.080;2022-11-12T00:06:31;5.10;;;3.90;;
9844;SDS011;4961;50.782;6.080;2022-11-12T00:08:59;5.57;;;4.07;;
9844;SDS011;4961;50.782;6.080;2022-11-12T00:11:27;6.03;;;3.70;;
9844;SDS011;4961;50.782;6.080;2022-11-12T00:13:55;7.43;;;4.27;;
9844;SDS011;4961;50.782;6.080;2022-11-12T00:16:24;7.70;;;5.00;;
9844;SDS011;4961;50.782;6.080;2022-11-12T00:18:53;7.23;;;4.27;;
9844;SDS011;4961;50.782;6.080;2022-11-12T00:21:22;8.10;;;4.67;;
9844;SDS011;4961;50.782;6.080;2022-11-12T00:23:56;7.67;;;4.77;;
9844;SDS011;4961;50.782;6.080;2022-11-12T00:26:31;9.93;;;5.03;;
9844;SDS011;4961;50.782;6.080;2022-11-12T00:28:59;8.77;;;5.17;;
9844;SDS011;4961;50.782;6.080;2022-11-12T00:31:29;6.90;;;4.57;;
9844;SDS011;4961;50.782;6.080;2022-11-12T00:33:57;12.30;;;4.73;;
9844;SDS011;4961;50.782;6.080;2022-11-12T00:36:25;6.70;;;3.93;;
9844;SDS011;4961;50.782;6.080;2022-11-12T00:38:54;13.33;;;4.43;;
9844;SDS011;4961;50.782;6.080;2022-11-12T00:41:22;6.57;;;4.63;;
9844;SDS011;4961;50.782;6.080;2022-11-12T00:43:50;6.10;;;3.80;;
9844;SDS011;4961;50.782;6.080;2022-11-12T00:46:19;4.73;;;4.27;;
9844;SDS011;4961;50.782;6.080;2022-11-12T00:48:49;6.70;;;4.47;;
9844;SDS011;4961;50.782;6.080;2022-11-12T00:51:17;5.60;;;4.93;;
9844;SDS011;4961;50.782;6.080;2022-11-12T00:53:45;7.13;;;5.07;;
9844;SDS011;4961;50.782;6.080;2022-11-12T00:56:14;5.97;;;4.90;;
9844;SDS011;4961;50.782;6.080;2022-11-12T00:58:43;6.13;;;4.83;;
9844;SDS011;4961;50.782;6.080;2022-11-12T01:01:12;6.47;;;5.13;;
9844;SDS011;4961;50.782;6.080;2022-11-12T01:03:41;7.90;;;5.80;;
9844;SDS011;4961;50.782;6.080;2022-11-12T01:06:13;9.67;;;5.13;;
9844;SDS011;4961;50.782;6.080;2022-11-12T01:08:42;9.67;;;5.27;;
9844;SDS011;4961;50.782;6.080;2022-11-12T01:11:12;7.00;;;5.00;;
9844;SDS011;4961;50.782;6.080;2022-11-12T01:13:44;8.73;;;5.20;;
9844;SDS011;4961;50.782;6.080;2022-11-12T01:16:15;8.70;;;5.73;;
9844;SDS011;4961;50.782;6.080;2022-11-12T01:18:46;11.87;;;6.57;;
9844;SDS011;4961;50.782;6.080;2022-11-12T01:21:20;9.23;;;5.30;;
9844;SDS011;4961;50.782;6.080;2022-11-12T01:23:49;5.03;;;4.27;;
9844;SDS011;4961;50.782;6.080;2022-11-12T01:26:18;9.87;;;5.47;;
9844;SDS011;4961;50.782;6.080;2022-11-12T01:28:48;6.20;;;4.07;;
9844;SDS011;4961;50.782;6.080;2022-11-12T01:31:17;5.50;;;4.30;;
9844;SDS011;4961;50.782;6.080;2022-11-12T01:33:48;8.00;;;5.13;;
9844;SDS011;4961;50.782;6.080;2022-11-12T01:36:20;5.30;;;4.20;;
9844;SDS011;4961;50.782;6.080;2022-11-12T01:38:50;6.83;;;4.40;;
9844;SDS011;4961;50.782;6.080;2022-11-12T01:41:21;6.27;;;4.00;;
9844;SDS011;4961;50.782;6.080;2022-11-12T01:44:05;7.23;;;4.43;;
9844;SDS011;4961;50.782;6.080;2022-11-12T01:46:35;7.27;;;4.00;;
9844;SDS011;4961;50.782;6.080;2022-11-12T01:49:11;6.53;;;3.97;;
9844;SDS011;4961;50.782;6.080;2022-11-12T01:51:45;5.37;;;3.20;;
9844;SDS011;4961;50.782;6.080;2022-11-12T01:54:18;3.20;;;2.33;;
9844;SDS011;4961;50.782;6.080;2022-11-12T01:56:47;2.87;;;2.23;;
9844;SDS011;4961;50.782;6.080;2022-11-12T01:59:19;4.70;;;3.30;;
9844;SDS011;4961;50.782;6.080;2022-11-12T02:01:51;3.53;;;3.20;;
9844;SDS011;4961;50.782;6.080;2022-11-12T02:04:20;4.33;;;3.23;;
9844;SDS011;4961;50.782;6.080;2022-11-12T02:06:53;6.50;;;2.77;;
9844;SDS011;4961;50.782;6.080;2022-11-12T02:09:25;2.87;;;2.43;;
9844;SDS011;4961;50.782;6.080;2022-11-12T02:11:55;3.63;;;2.27;;
9844;SDS011;4961;50.782;6.080;2022-11-12T02:14:23;2.23;;;2.03;;
9844;SDS011;4961;50.782;6.080;2022-11-12T02:16:50;2.03;;;1.93;;
9844;SDS011;4961;50.782;6.080;2022-11-12T02:19:19;3.20;;;2.00;;
9844;SDS011;4961;50.782;6.080;2022-11-12T02:21:54;2.73;;;1.87;;
9844;SDS011;4961;50.782;6.080;2022-11-12T02:24:33;3.20;;;2.27;;
9844;SDS011;4961;50.782;6.080;2022-11-12T02:27:03;3.47;;;2.30;;
9844;SDS011;4961;50.782;6.080;2022-11-12T02:29:33;4.53;;;2.00;;
9844;SDS011;4961;50.782;6.080;2022-11-12T02:32:01;5.40;;;1.80;;
9844;SDS011;4961;50.782;6.080;2022-11-12T02:34:29;1.60;;;1.27;;
9844;SDS011;4961;50.782;6.080;2022-11-12T02:36:59;2.00;;;1.50;;
9844;SDS011;4961;50.782;6.080;2022-11-12T02:39:27;2.80;;;1.50;;
9844;SDS011;4961;50.782;6.080;2022-11-12T02:41:56;1.13;;;0.80;;
9844;SDS011;4961;50.782;6.080;2022-11-12T02:44:24;1.77;;;0.90;;
9844;SDS011;4961;50.782;6.080;2022-11-12T02:46:53;0.87;;;0.80;;
9844;SDS011;4961;50.782;6.080;2022-11-12T02:49:21;2.63;;;0.70;;
9844;SDS011;4961;50.782;6.080;2022-11-12T02:51:50;0.60;;;0.50;;
9844;SDS011;4961;50.782;6.080;2022-11-12T02:54:19;1.67;;;0.83;;
9844;SDS011;4961;50.782;6.080;2022-11-12T02:56:48;0.50;;;0.50;;
9844;SDS011;4961;50.782;6.080;2022-11-12T02:59:16;0.50;;;0.50;;
9844;SDS011;4961;50.782;6.080;2022-11-12T03:01:44;1.17;;;0.50;;
9844;SDS011;4961;50.782;6.080;2022-11-12T03:04:12;1.23;;;0.60;;
9844;SDS011;4961;50.782;6.080;2022-11-12T03:06:42;0.97;;;0.47;;
9844;SDS011;4961;50.782;6.080;2022-11-12T03:09:10;2.40;;;0.50;;
9844;SDS011;4961;50.782;6.080;2022-11-12T03:11:40;9.10;;;0.80;;
9844;SDS011;4961;50.782;6.080;2022-11-12T03:14:08;0.87;;;0.40;;
9844;SDS011;4961;50.782;6.080;2022-11-12T03:16:37;0.40;;;0.40;;
9844;SDS011;4961;50.782;6.080;2022-11-12T03:19:05;0.40;;;0.40;;
9844;SDS011;4961;50.782;6.080;2022-11-12T03:21:33;0.30;;;0.30;;
9844;SDS011;4961;50.782;6.080;2022-11-12T03:24:02;0.63;;;0.30;;
9844;SDS011;4961;50.782;6.080;2022-11-12T03:26:30;0.80;;;0.40;;
9844;SDS011;4961;50.782;6.080;2022-11-12T03:29:02;2.00;;;0.30;;
9844;SDS011;4961;50.782;6.080;2022-11-12T03:31:31;1.43;;;0.50;;
9844;SDS011;4961;50.782;6.080;2022-11-12T03:34:00;2.03;;;0.50;;
9844;SDS011;4961;50.782;6.080;2022-11-12T03:36:29;0.60;;;0.60;;
9844;SDS011;4961;50.782;6.080;2022-11-12T03:38:57;0.73;;;0.47;;
9844;SDS011;4961;50.782;6.080;2022-11-12T03:41:26;0.60;;;0.53;;
9844;SDS011;4961;50.782;6.080;2022-11-12T03:43:54;2.40;;;0.50;;
9844;SDS011;4961;50.782;6.080;2022-11-12T03:46:24;1.03;;;0.80;;
9844;SDS011;4961;50.782;6.080;2022-11-12T03:48:52;0.63;;;0.63;;
9844;SDS011;4961;50.782;6.080;2022-11-12T03:51:21;2.40;;;0.80;;
9844;SDS011;4961;50.782;6.080;2022-11-12T03:53:49;1.60;;;0.90;;
9844;SDS011;4961;50.782;6.080;2022-11-12T03:56:18;1.00;;;0.90;;
9844;SDS011;4961;50.782;6.080;2022-11-12T03:58:46;2.03;;;1.10;;
9844;SDS011;4961;50.782;6.080;2022-11-12T04:01:14;2.67;;;1.43;;
9844;SDS011;4961;50.782;6.080;2022-11-12T04:03:44;1.50;;;1.40;;
9844;SDS011;4961;50.782;6.080;2022-11-12T04:06:13;1.80;;;1.60;;
9844;SDS011;4961;50.782;6.080;2022-11-12T04:08:59;4.87;;;2.10;;
9844;SDS011;4961;50.782;6.080;2022-11-12T04:11:28;2.07;;;1.30;;
9844;SDS011;4961;50.782;6.080;2022-11-12T04:13:56;2.10;;;1.90;;
9844;SDS011;4961;50.782;6.080;2022-11-12T04:16:25;2.17;;;1.93;;
9844;SDS011;4961;50.782;6.080;2022-11-12T04:19:12;4.07;;;1.90;;
9844;SDS011;4961;50.782;6.080;2022-11-12T04:22:00;1.70;;;1.60;;
9844;SDS011;4961;50.782;6.080;2022-11-12T04:24:31;3.20;;;1.87;;
9844;SDS011;4961;50.782;6.080;2022-11-12T04:27:19;2.13;;;1.67;;
9844;SDS011;4961;50.782;6.080;2022-11-12T04:29:49;2.53;;;2.00;;
9844;SDS011;4961;50.782;6.080;2022-11-12T04:32:45;3.37;;;1.77;;
9844;SDS011;4961;50.782;6.080;2022-11-12T04:35:16;3.67;;;1.70;;
9844;SDS011;4961;50.782;6.080;2022-11-12T04:37:45;1.63;;;1.27;;
9844;SDS011;4961;50.782;6.080;2022-11-12T04:40:14;2.60;;;2.20;;
9844;SDS011;4961;50.782;6.080;2022-11-12T04:43:08;2.37;;;2.00;;
9844;SDS011;4961;50.782;6.080;2022-11-12T04:45:54;2.70;;;1.80;;
9844;SDS011;4961;50.782;6.080;2022-11-12T04:48:23;1.97;;;1.70;;
9844;SDS011;4961;50.782;6.080;2022-11-12T04:50:54;2.37;;;1.63;;
9844;SDS011;4961;50.782;6.080;2022-11-12T04:53:25;4.50;;;2.33;;
9844;SDS011;4961;50.782;6.080;2022-11-12T04:55:54;4.23;;;1.93;;
9844;SDS011;4961;50.782;6.080;2022-11-12T04:58:23;1.93;;;1.40;;
9844;SDS011;4961;50.782;6.080;2022-11-12T05:00:52;2.00;;;1.83;;
9844;SDS011;4961;50.782;6.080;2022-11-12T05:03:20;2.90;;;1.60;;
9844;SDS011;4961;50.782;6.080;2022-11-12T05:05:49;3.67;;;2.00;;
9844;SDS011;4961;50.782;6.080;2022-11-12T05:08:18;1.70;;;1.60;;
9844;SDS011;4961;50.782;6.080;2022-11-12T05:10:47;2.63;;;1.27;;
9844;SDS011;4961;50.782;6.080;2022-11-12T05:13:15;1.87;;;1.10;;
9844;SDS011;4961;50.782;6.080;2022-11-12T05:15:45;2.47;;;1.30;;
9844;SDS011;4961;50.782;6.080;2022-11-12T05:18:14;2.30;;;1.83;;
9844;SDS011;4961;50.782;6.080;2022-11-12T05:20:42;1.70;;;1.37;;
9844;SDS011;4961;50.782;6.080;2022-11-12T05:23:10;1.97;;;1.37;;
9844;SDS011;4961;50.782;6.080;2022-11-12T05:25:41;1.60;;;1.50;;
9844;SDS011;4961;50.782;6.080;2022-11-12T05:28:09;1.87;;;1.50;;
9844;SDS011;4961;50.782;6.080;2022-11-12T05:30:37;2.17;;;1.50;;
9844;SDS011;4961;50.782;6.080;2022-11-12T05:33:05;1.20;;;1.10;;
9844;SDS011;4961;50.782;6.080;2022-11-12T05:35:34;3.23;;;1.60;;
9844;SDS011;4961;50.782;6.080;2022-11-12T05:38:02;1.67;;;1.30;;
9844;SDS011;4961;50.782;6.080;2022-11-12T05:40:30;1.80;;;1.53;;
9844;SDS011;4961;50.782;6.080;2022-11-12T05:43:00;1.40;;;1.30;;
9844;SDS011;4961;50.782;6.080;2022-11-12T05:45:28;2.43;;;1.47;;
9844;SDS011;4961;50.782;6.080;2022-11-12T05:47:56;3.13;;;1.63;;
9844;SDS011;4961;50.782;6.080;2022-11-12T05:50:24;1.20;;;1.10;;
9844;SDS011;4961;50.782;6.080;2022-11-12T05:53:04;1.23;;;1.07;;
9844;SDS011;4961;50.782;6.080;2022-11-12T05:55:33;1.97;;;1.33;;
9844;SDS011;4961;50.782;6.080;2022-11-12T05:58:04;1.50;;;1.10;;
9844;SDS011;4961;50.782;6.080;2022-11-12T06:00:33;3.70;;;1.63;;
9844;SDS011;4961;50.782;6.080;2022-11-12T06:03:04;3.23;;;1.23;;
9844;SDS011;4961;50.782;6.080;2022-11-12T06:05:32;1.27;;;1.17;;
9844;SDS011;4961;50.782;6.080;2022-11-12T06:08:01;1.73;;;1.33;;
9844;SDS011;4961;50.782;6.080;2022-11-12T06:10:38;1.43;;;1.33;;
9844;SDS011;4961;50.782;6.080;2022-11-12T06:13:07;3.03;;;1.30;;
9844;SDS011;4961;50.782;6.080;2022-11-12T06:15:36;1.40;;;1.30;;
9844;SDS011;4961;50.782;6.080;2022-11-12T06:18:04;1.33;;;1.00;;
9844;SDS011;4961;50.782;6.080;2022-11-12T06:20:33;1.23;;;1.00;;
9844;SDS011;4961;50.782;6.080;2022-11-12T06:23:01;1.47;;;1.37;;
9844;SDS011;4961;50.782;6.080;2022-11-12T06:25:30;1.30;;;1.17;;
9844;SDS011;4961;50.782;6.080;2022-11-12T06:27:59;1.13;;;1.03;;
9844;SDS011;4961;50.782;6.080;2022-11-12T06:30:28;1.70;;;1.20;;
9844;SDS011;4961;50.782;6.080;2022-11-12T06:32:56;1.60;;;0.90;;
9844;SDS011;4961;50.782;6.080;2022-11-12T06:35:25;1.67;;;1.00;;
9844;SDS011;4961;50.782;6.080;2022-11-12T06:37:53;1.40;;;1.30;;
9844;SDS011;4961;50.782;6.080;2022-11-12T06:40:21;2.20;;;1.30;;
9844;SDS011;4961;50.782;6.080;2022-11-12T06:42:55;1.27;;;0.90;;
9844;SDS011;4961;50.782;6.080;2022-11-12T06:45:24;1.70;;;1.00;;
9844;SDS011;4961;50.782;6.080;2022-11-12T06:47:57;4.90;;;1.50;;
9844;SDS011;4961;50.782;6.080;2022-11-12T06:50:25;1.30;;;1.20;;
9844;SDS011;4961;50.782;6.080;2022-11-12T06:52:56;1.27;;;1.13;;
9844;SDS011;4961;50.782;6.080;2022-11-12T06:55:25;2.73;;;1.90;;
9844;SDS011;4961;50.782;6.080;2022-11-12T06:57:53;1.30;;;1.20;;
9844;SDS011;4961;50.782;6.080;2022-11-12T07:00:22;3.97;;;1.70;;
9844;SDS011;4961;50.782;6.080;2022-11-12T07:02:50;2.47;;;1.20;;
9844;SDS011;4961;50.782;6.080;2022-11-12T07:05:20;1.70;;;1.30;;
9844;SDS011;4961;50.782;6.080;2022-11-12T07:07:49;2.77;;;1.20;;
9844;SDS011;4961;50.782;6.080;2022-11-12T07:10:17;1.73;;;1.10;;
9844;SDS011;4961;50.782;6.080;2022-11-12T07:12:45;1.43;;;1.00;;
9844;SDS011;4961;50.782;6.080;2022-11-12T07:15:18;2.67;;;1.07;;
9844;SDS011;4961;50.782;6.080;2022-11-12T07:17:47;2.47;;;1.27;;
9844;SDS011;4961;50.782;6.080;2022-11-12T07:20:16;2.13;;;1.37;;
9844;SDS011;4961;50.782;6.080;2022-11-12T07:22:48;1.50;;;1.00;;
9844;SDS011;4961;50.782;6.080;2022-11-12T07:25:16;6.13;;;1.47;;
9844;SDS011;4961;50.782;6.080;2022-11-12T07:27:45;2.13;;;1.50;;
9844;SDS011;4961;50.782;6.080;2022-11-12T07:30:13;2.93;;;1.30;;
9844;SDS011;4961;50.782;6.080;2022-11-12T07:32:42;1.37;;;1.13;;
9844;SDS011;4961;50.782;6.080;2022-11-12T07:35:17;1.20;;;1.10;;
9844;SDS011;4961;50.782;6.080;2022-11-12T07:37:45;1.73;;;0.93;;
9844;SDS011;4961;50.782;6.080;2022-11-12T07:40:17;1.50;;;1.40;;
9844;SDS011;4961;50.782;6.080;2022-11-12T07:42:45;2.37;;;1.10;;
9844;SDS011;4961;50.782;6.080;2022-11-12T07:45:13;1.80;;;1.10;;
9844;SDS011;4961;50.782;6.080;2022-11-12T07:47:42;3.07;;;0.90;;
9844;SDS011;4961;50.782;6.080;2022-11-12T07:50:10;3.03;;;1.00;;
9844;SDS011;4961;50.782;6.080;2022-11-12T07:52:39;2.10;;;1.20;;
9844;SDS011;4961;50.782;6.080;2022-11-12T07:55:07;2.63;;;1.00;;
9844;SDS011;4961;50.782;6.080;2022-11-12T07:57:37;1.00;;;0.90;;
9844;SDS011;4961;50.782;6.080;2022-11-12T08:00:06;2.93;;;1.00;;
9844;SDS011;4961;50.782;6.080;2022-11-12T08:02:36;2.60;;;1.07;;
9844;SDS011;4961;50.782;6.080;2022-11-12T08:05:04;1.23;;;0.83;;
9844;SDS011;4961;50.782;6.080;2022-11-12T08:07:41;2.00;;;0.90;;
9844;SDS011;4961;50.782;6.080;2022-11-12T08:10:10;1.00;;;0.90;;
9844;SDS011;4961;50.782;6.080;2022-11-12T08:12:40;1.43;;;1.23;;
9844;SDS011;4961;50.782;6.080;2022-11-12T08:15:08;1.30;;;0.80;;
9844;SDS011;4961;50.782;6.080;2022-11-12T08:17:38;1.90;;;0.83;;
9844;SDS011;4961;50.782;6.080;2022-11-12T08:20:07;1.93;;;0.90;;
9844;SDS011;4961;50.782;6.080;2022-11-12T08:22:35;2.30;;;0.93;;
9844;SDS011;4961;50.782;6.080;2022-11-12T08:25:05;2.63;;;0.93;;
9844;SDS011;4961;50.782;6.080;2022-11-12T08:27:34;1.03;;;0.87;;
9844;SDS011;4961;50.782;6.080;2022-11-12T08:30:04;1.10;;;0.83;;
9844;SDS011;4961;50.782;6.080;2022-11-12T08:32:34;1.30;;;1.20;;
9844;SDS011;4961;50.782;6.080;2022-11-12T08:35:02;1.50;;;0.90;;
9844;SDS011;4961;50.782;6.080;2022-11-12T08:37:31;1.20;;;0.80;;
9844;SDS011;4961;50.782;6.080;2022-11-12T08:39:59;1.10;;;1.00;;
9844;SDS011;4961;50.782;6.080;2022-11-12T08:42:29;1.93;;;0.90;;
9844;SDS011;4961;50.782;6.080;2022-11-12T08:44:58;1.10;;;1.00;;
9844;SDS011;4961;50.782;6.080;2022-11-12T08:47:27;2.50;;;1.10;;
9844;SDS011;4961;50.782;6.080;2022-11-12T08:49:56;0.80;;;0.80;;
9844;SDS011;4961;50.782;6.080;2022-11-12T08:52:24;2.60;;;1.10;;
9844;SDS011;4961;50.782;6.080;2022-11-12T08:54:53;1.30;;;1.17;;
9844;SDS011;4961;50.782;6.080;2022-11-12T08:57:21;1.73;;;1.40;;
9844;SDS011;4961;50.782;6.080;2022-11-12T08:59:49;1.77;;;0.80;;
9844;SDS011;4961;50.782;6.080;2022-11-12T09:02:17;2.23;;;1.20;;
9844;SDS011;4961;50.782;6.080;2022-11-12T09:04:47;1.70;;;1.40;;
9844;SDS011;4961;50.782;6.080;2022-11-12T09:07:15;1.20;;;1.00;;
9844;SDS011;4961;50.782;6.080;2022-11-12T09:10:04;1.87;;;1.20;;
9844;SDS011;4961;50.782;6.080;2022-11-12T09:12:33;3.77;;;1.90;;
9844;SDS011;4961;50.782;6.080;2022-11-12T09:15:01;1.97;;;1.20;;
9844;SDS011;4961;50.782;6.080;2022-11-12T09:17:53;1.40;;;1.20;;
9844;SDS011;4961;50.782;6.080;2022-11-12T09:20:24;4.20;;;1.13;;
9844;SDS011;4961;50.782;6.080;2022-11-12T09:22:56;2.33;;;1.30;;
9844;SDS011;4961;50.782;6.080;2022-11-12T09:25:25;1.33;;;1.00;;
9844;SDS011;4961;50.782;6.080;2022-11-12T09:27:54;1.80;;;1.30;;
9844;SDS011;4961;50.782;6.080;2022-11-12T09:30:22;1.60;;;1.27;;
9844;SDS011;4961;50.782;6.080;2022-11-12T09:32:55;2.60;;;1.30;;
9844;SDS011;4961;50.782;6.080;2022-11-12T09:35:25;3.50;;;3.20;;
9844;SDS011;4961;50.782;6.080;2022-11-12T09:37:54;2.60;;;1.73;;
9844;SDS011;4961;50.782;6.080;2022-11-12T09:40:26;1.50;;;1.40;;
9844;SDS011;4961;50.782;6.080;2022-11-12T09:43:08;1.67;;;1.20;;
9844;SDS011;4961;50.782;6.080;2022-11-12T09:45:39;4.23;;;1.20;;
9844;SDS011;4961;50.782;6.080;2022-11-12T09:48:26;1.60;;;1.10;;
9844;SDS011;4961;50.782;6.080;2022-11-12T09:51:01;1.73;;;1.10;;
9844;SDS011;4961;50.782;6.080;2022-11-12T09:53:38;1.83;;;0.90;;
9844;SDS011;4961;50.782;6.080;2022-11-12T09:56:11;1.53;;;1.10;;
9844;SDS011;4961;50.782;6.080;2022-11-12T09:58:40;2.37;;;1.10;;
9844;SDS011;4961;50.782;6.080;2022-11-12T10:01:11;1.40;;;1.10;;
9844;SDS011;4961;50.782;6.080;2022-11-12T10:03:45;1.03;;;1.03;;
9844;SDS011;4961;50.782;6.080;2022-11-12T10:06:21;3.40;;;1.57;;
9844;SDS011;4961;50.782;6.080;2022-11-12T10:08:56;2.30;;;1.30;;
9844;SDS011;4961;50.782;6.080;2022-11-12T10:11:37;2.47;;;1.30;;
9844;SDS011;4961;50.782;6.080;2022-11-12T10:14:46;3.53;;;1.30;;
9844;SDS011;4961;50.782;6.080;2022-11-12T10:17:25;2.40;;;1.07;;
9844;SDS011;4961;50.782;6.080;2022-11-12T10:20:00;1.80;;;0.80;;
9844;SDS011;4961;50.782;6.080;2022-11-12T10:22:56;0.97;;;0.80;;
9844;SDS011;4961;50.782;6.080;2022-11-12T10:25:32;1.10;;;1.00;;
9844;SDS011;4961;50.782;6.080;2022-11-12T10:28:05;1.50;;;1.00;;
9844;SDS011;4961;50.782;6.080;2022-11-12T10:30:51;2.87;;;1.23;;
9844;SDS011;4961;50.782;6.080;2022-11-12T10:33:28;1.43;;;1.10;;
9844;SDS011;4961;50.782;6.080;2022-11-12T10:36:08;4.43;;;1.20;;
9844;SDS011;4961;50.782;6.080;2022-11-12T10:38:53;1.57;;;0.77;;
9844;SDS011;4961;50.782;6.080;2022-11-12T10:41:23;0.70;;;0.70;;
9844;SDS011;4961;50.782;6.080;2022-11-12T10:43:53;0.50;;;0.50;;
9844;SDS011;4961;50.782;6.080;2022-11-12T10:46:24;1.27;;;0.70;;
9844;SDS011;4961;50.782;6.080;2022-11-12T10:48:58;2.00;;;0.80;;
9844;SDS011;4961;50.782;6.080;2022-11-12T10:51:30;1.83;;;0.60;;
9844;SDS011;4961;50.782;6.080;2022-11-12T10:54:01;1.13;;;0.70;;
9844;SDS011;4961;50.782;6.080;2022-11-12T10:56:48;2.07;;;0.70;;
9844;SDS011;4961;50.782;6.080;2022-11-12T10:59:21;2.00;;;1.07;;
9844;SDS011;4961;50.782;6.080;2022-11-12T11:01:53;1.37;;;1.13;;
9844;SDS011;4961;50.782;6.080;2022-11-12T11:04:32;1.00;;;0.83;;
9844;SDS011;4961;50.782;6.080;2022-11-12T11:07:04;1.87;;;1.17;;
9844;SDS011;4961;50.782;6.080;2022-11-12T11:09:35;4.33;;;0.80;;
9844;SDS011;4961;50.782;6.080;2022-11-12T11:12:04;1.67;;;0.80;;
9844;SDS011;4961;50.782;6.080;2022-11-12T11:14:48;1.20;;;0.70;;
9844;SDS011;4961;50.782;6.080;2022-11-12T11:17:34;0.80;;;0.80;;
9844;SDS011;4961;50.782;6.080;2022-11-12T11:20:03;0.77;;;0.70;;
9844;SDS011;4961;50.782;6.080;2022-11-12T11:22:35;1.43;;;0.90;;
9844;SDS011;4961;50.782;6.080;2022-11-12T11:25:16;4.20;;;1.40;;
9844;SDS011;4961;50.782;6.080;2022-11-12T11:27:51;3.17;;;1.30;;
9844;SDS011;4961;50.782;6.080;2022-11-12T11:30:28;1.50;;;1.00;;
9844;SDS011;4961;50.782;6.080;2022-11-12T11:33:00;2.73;;;1.20;;
9844;SDS011;4961;50.782;6.080;2022-11-12T11:35:51;2.20;;;1.00;;
9844;SDS011;4961;50.782;6.080;2022-11-12T11:38:30;1.37;;;0.90;;
9844;SDS011;4961;50.782;6.080;2022-11-12T11:41:09;1.20;;;1.00;;
9844;SDS011;4961;50.782;6.080;2022-11-12T11:43:51;1.00;;;0.90;;
9844;SDS011;4961;50.782;6.080;2022-11-12T11:46:47;1.23;;;0.93;;
9844;SDS011;4961;50.782;6.080;2022-11-12T11:49:34;1.00;;;0.77;;
9844;SDS011;4961;50.782;6.080;2022-11-12T11:52:19;1.30;;;0.80;;
9844;SDS011;4961;50.782;6.080;2022-11-12T11:55:08;1.07;;;0.80;;
9844;SDS011;4961;50.782;6.080;2022-11-12T11:57:57;1.37;;;0.70;;
9844;SDS011;4961;50.782;6.080;2022-11-12T12:00:38;1.07;;;0.83;;
9844;SDS011;4961;50.782;6.080;2022-11-12T12:03:16;0.70;;;0.60;;
9844;SDS011;4961;50.782;6.080;2022-11-12T12:05:55;1.77;;;0.60;;
9844;SDS011;4961;50.782;6.080;2022-11-12T12:08:38;0.50;;;0.50;;
9844;SDS011;4961;50.782;6.080;2022-11-12T12:11:15;0.87;;;0.63;;
9844;SDS011;4961;50.782;6.080;2022-11-12T12:13:55;0.90;;;0.60;;
9844;SDS011;4961;50.782;6.080;2022-11-12T12:16:35;0.73;;;0.57;;
9844;SDS011;4961;50.782;6.080;2022-11-12T12:19:20;0.70;;;0.57;;
9844;SDS011;4961;50.782;6.080;2022-11-12T12:22:02;0.60;;;0.60;;
9844;SDS011;4961;50.782;6.080;2022-11-12T12:24:36;0.80;;;0.70;;
9844;SDS011;4961;50.782;6.080;2022-11-12T12:27:13;2.97;;;0.70;;
9844;SDS011;4961;50.782;6.080;2022-11-12T12:29:47;0.60;;;0.40;;
9844;SDS011;4961;50.782;6.080;2022-11-12T12:32:20;0.60;;;0.60;;
9844;SDS011;4961;50.782;6.080;2022-11-12T12:34:55;0.40;;;0.40;;
9844;SDS011;4961;50.782;6.080;2022-11-12T12:37:30;0.70;;;0.57;;
9844;SDS011;4961;50.782;6.080;2022-11-12T12:40:04;0.37;;;0.37;;
9844;SDS011;4961;50.782;6.080;2022-11-12T12:42:44;0.43;;;0.40;;
9844;SDS011;4961;50.782;6.080;2022-11-12T12:45:29;0.50;;;0.50;;
9844;SDS011;4961;50.782;6.080;2022-11-12T12:48:06;0.50;;;0.50;;
9844;SDS011;4961;50.782;6.080;2022-11-12T12:50:39;0.97;;;0.50;;
9844;SDS011;4961;50.782;6.080;2022-11-12T12:53:15;0.70;;;0.67;;
9844;SDS011;4961;50.782;6.080;2022-11-12T12:55:57;2.90;;;0.80;;
9844;SDS011;4961;50.782;6.080;2022-11-12T12:58:27;1.50;;;0.87;;
9844;SDS011;4961;50.782;6.080;2022-11-12T13:00:59;2.33;;;1.10;;
9844;SDS011;4961;50.782;6.080;2022-11-12T13:06:24;3.57;;;0.80;;
9844;SDS011;4961;50.782;6.080;2022-11-12T13:09:04;2.83;;;0.80;;
9844;SDS011;4961;50.782;6.080;2022-11-12T13:11:56;2.27;;;1.00;;
9844;SDS011;4961;50.782;6.080;2022-11-12T13:14:49;2.57;;;1.00;;
9844;SDS011;4961;50.782;6.080;2022-11-12T13:17:46;2.07;;;1.03;;
9844;SDS011;4961;50.782;6.080;2022-11-12T13:23:02;1.57;;;1.10;;
9844;SDS011;4961;50.782;6.080;2022-11-12T13:25:35;5.23;;;0.90;;
9844;SDS011;4961;50.782;6.080;2022-11-12T13:28:08;2.70;;;1.17;;
9844;SDS011;4961;50.782;6.080;2022-11-12T13:33:33;1.80;;;0.80;;
9844;SDS011;4961;50.782;6.080;2022-11-12T13:36:23;1.30;;;0.93;;
9844;SDS011;4961;50.782;6.080;2022-11-12T13:38:54;1.67;;;0.77;;
9844;SDS011;4961;50.782;6.080;2022-11-12T13:41:37;5.70;;;1.07;;
9844;SDS011;4961;50.782;6.080;2022-11-12T13:44:23;1.70;;;1.00;;
9844;SDS011;4961;50.782;6.080;2022-11-12T13:46:53;3.83;;;1.50;;
9844;SDS011;4961;50.782;6.080;2022-11-12T13:49:24;4.63;;;1.30;;
9844;SDS011;4961;50.782;6.080;2022-11-12T13:51:53;1.70;;;1.03;;
9844;SDS011;4961;50.782;6.080;2022-11-12T13:54:32;3.13;;;1.13;;
9844;SDS011;4961;50.782;6.080;2022-11-12T13:57:13;3.43;;;0.90;;
9844;SDS011;4961;50.782;6.080;2022-11-12T14:00:20;3.20;;;0.90;;
9844;SDS011;4961;50.782;6.080;2022-11-12T14:03:00;4.80;;;1.10;;
9844;SDS011;4961;50.782;6.080;2022-11-12T14:05:32;2.90;;;0.80;;
9844;SDS011;4961;50.782;6.080;2022-11-12T14:10:56;1.60;;;0.90;;
9844;SDS011;4961;50.782;6.080;2022-11-12T14:13:38;0.77;;;0.70;;
9844;SDS011;4961;50.782;6.080;2022-11-12T14:16:23;2.30;;;0.90;;
9844;SDS011;4961;50.782;6.080;2022-11-12T14:19:07;2.20;;;1.03;;
9844;SDS011;4961;50.782;6.080;2022-11-12T14:22:06;4.00;;;1.20;;
9844;SDS011;4961;50.782;6.080;2022-11-12T14:24:40;2.63;;;1.00;;
9844;SDS011;4961;50.782;6.080;2022-11-12T14:30:12;2.27;;;1.57;;
9844;SDS011;4961;50.782;6.080;2022-11-12T14:32:43;2.63;;;1.40;;
9844;SDS011;4961;50.782;6.080;2022-11-12T14:38:13;2.90;;;1.97;;
9844;SDS011;4961;50.782;6.080;2022-11-12T14:40:46;4.23;;;2.37;;
9844;SDS011;4961;50.782;6.080;2022-11-12T14:43:18;4.13;;;2.67;;
9844;SDS011;4961;50.782;6.080;2022-11-12T14:45:53;3.77;;;3.03;;
9844;SDS011;4961;50.782;6.080;2022-11-12T14:48:23;5.90;;;3.33;;
9844;SDS011;4961;50.782;6.080;2022-11-12T14:50:54;5.60;;;3.20;;
9844;SDS011;4961;50.782;6.080;2022-11-12T14:53:29;7.33;;;3.43;;
9844;SDS011;4961;50.782;6.080;2022-11-12T14:56:00;6.20;;;3.37;;
9844;SDS011;4961;50.782;6.080;2022-11-12T14:58:31;4.43;;;3.20;;
9844;SDS011;4961;50.782;6.080;2022-11-12T15:04:15;6.63;;;3.40;;
9844;SDS011;4961;50.782;6.080;2022-11-12T15:06:50;4.57;;;3.23;;
9844;SDS011;4961;50.782;6.080;2022-11-12T15:12:06;5.93;;;3.80;;
9844;SDS011;4961;50.782;6.080;2022-11-12T15:14:38;5.10;;;2.50;;
9844;SDS011;4961;50.782;6.080;2022-11-12T15:17:17;2.90;;;2.10;;
9844;SDS011;4961;50.782;6.080;2022-11-12T15:19:53;5.90;;;2.13;;
9844;SDS011;4961;50.782;6.080;2022-11-12T15:22:28;5.20;;;2.10;;
9844;SDS011;4961;50.782;6.080;2022-11-12T15:25:09;3.27;;;2.33;;
9844;SDS011;4961;50.782;6.080;2022-11-12T15:27:39;4.67;;;2.33;;
9844;SDS011;4961;50.782;6.080;2022-11-12T15:30:13;5.07;;;2.77;;
9844;SDS011;4961;50.782;6.080;2022-11-12T15:32:43;2.83;;;2.63;;
9844;SDS011;4961;50.782;6.080;2022-11-12T15:38:02;4.27;;;2.30;;
9844;SDS011;4961;50.782;6.080;2022-11-12T15:40:40;4.00;;;2.30;;
9844;SDS011;4961;50.782;6.080;2022-11-12T15:43:11;3.37;;;1.97;;
9844;SDS011;4961;50.782;6.080;2022-11-12T15:45:42;2.87;;;2.23;;
9844;SDS011;4961;50.782;6.080;2022-11-12T15:48:15;2.80;;;2.53;;
9844;SDS011;4961;50.782;6.080;2022-11-12T15:50:43;3.67;;;2.00;;
9844;SDS011;4961;50.782;6.080;2022-11-12T15:53:13;2.43;;;1.80;;
9844;SDS011;4961;50.782;6.080;2022-11-12T15:55:43;3.70;;;1.43;;
9844;SDS011;4961;50.782;6.080;2022-11-12T15:58:13;4.50;;;2.00;;
9844;SDS011;4961;50.782;6.080;2022-11-12T16:00:44;1.80;;;1.60;;
9844;SDS011;4961;50.782;6.080;2022-11-12T16:03:13;2.10;;;1.90;;
9844;SDS011;4961;50.782;6.080;2022-11-12T16:05:43;2.03;;;1.70;;
9844;SDS011;4961;50.782;6.080;2022-11-12T16:08:12;2.10;;;1.90;;
9844;SDS011;4961;50.782;6.080;2022-11-12T16:10:47;3.70;;;1.60;;
9844;SDS011;4961;50.782;6.080;2022-11-12T16:13:17;2.53;;;1.77;;
9844;SDS011;4961;50.782;6.080;2022-11-12T16:15:50;2.77;;;1.67;;